sensor_id;sensor_type;location;lat;lon;timestamp;pressure;altitude;pressure_sealevel;temperature;humidity
80103;BME280;69865;47.648;19.030;2023-10-13T00:00:07;100712.06;;;13.62;100.00
80103;BME280;69865;47.648;19.030;2023-10-13T00:00:41;100718.91;;;13.64;100.00
80103;BME280;69865;47.648;19.030;2023-10-13T00:01:13;100711.81;;;13.65;100.00
80103;BME280;69865;47.648;19.030;2023-10-13T00:01:47;100712.34;;;13.69;100.00
80103;BME280;69865;47.648;19.030;2023-10-13T00:02:19;100710.38;;;13.71;100.00
80103;BME280;69865;47.648;19.030;2023-10-13T00:02:51;100712.06;;;13.72;100.00
80103;BME280;69865;47.648;19.030;2023-10-13T00:03:23;100709.41;;;13.72;100.00
80103;BME280;69865;47.648;19.030;2023-10-13T00:03:55;100714.59;;;13.73;100.00
80103;BME280;69865;47.648;19.030;2023-10-13T00:04:28;100715.38;;;13.74;100.00
80103;BME280;69865;47.648;19.030;2023-10-13T00:05:01;100710.38;;;13.71;100.00
80103;BME280;69865;47.648;19.030;2023-10-13T00:05:33;100718.75;;;13.76;100.00
80103;BME280;69865;47.648;19.030;2023-10-13T00:06:06;100722.22;;;13.76;100.00
80103;BME280;69865;47.648;19.030;2023-10-13T00:06:38;100715.97;;;13.77;100.00
80103;BME280;69865;47.648;19.030;2023-10-13T00:07:10;100720.56;;;13.75;100.00
80103;BME280;69865;47.648;19.030;2023-10-13T00:07:42;100718.44;;;13.79;100.00
80103;BME280;69865;47.648;19.030;2023-10-13T00:08:14;100716.63;;;13.79;100.00
80103;BME280;69865;47.648;19.030;2023-10-13T00:08:46;100713.84;;;13.81;100.00
80103;BME280;69865;47.648;19.030;2023-10-13T00:09:19;100719.81;;;13.83;100.00
80103;BME280;69865;47.648;19.030;2023-10-13T00:09:51;100709.25;;;13.83;100.00
80103;BME280;69865;47.648;19.030;2023-10-13T00:10:23;100716.34;;;13.82;100.00
80103;BME280;69865;47.648;19.030;2023-10-13T00:10:56;100707.44;;;13.83;100.00
80103;BME280;69865;47.648;19.030;2023-10-13T00:11:28;100707.44;;;13.83;100.00
80103;BME280;69865;47.648;19.030;2023-10-13T00:12:01;100708.41;;;13.82;100.00
80103;BME280;69865;47.648;19.030;2023-10-13T00:12:34;100700.63;;;13.81;100.00
80103;BME280;69865;47.648;19.030;2023-10-13T00:13:06;100711.63;;;13.76;100.00
80103;BME280;69865;47.648;19.030;2023-10-13T00:13:38;100714.28;;;13.76;100.00
80103;BME280;69865;47.648;19.030;2023-10-13T00:14:11;100715.66;;;13.80;100.00
80103;BME280;69865;47.648;19.030;2023-10-13T00:14:43;100714.69;;;13.81;100.00
80103;BME280;69865;47.648;19.030;2023-10-13T00:15:16;100706.59;;;13.83;100.00
80103;BME280;69865;47.648;19.030;2023-10-13T00:15:48;100707.56;;;13.82;100.00
80103;BME280;69865;47.648;19.030;2023-10-13T00:16:21;100708.56;;;13.81;100.00
80103;BME280;69865;47.648;19.030;2023-10-13T00:16:54;100706.88;;;13.80;100.00
80103;BME280;69865;47.648;19.030;2023-10-13T00:17:26;100709.66;;;13.78;100.00
80103;BME280;69865;47.648;19.030;2023-10-13T00:17:58;100711.47;;;13.78;100.00
80103;BME280;69865;47.648;19.030;2023-10-13T00:18:32;100717.06;;;13.75;100.00
80103;BME280;69865;47.648;19.030;2023-10-13T00:19:04;100714.28;;;13.76;100.00
80103;BME280;69865;47.648;19.030;2023-10-13T00:19:37;100714.28;;;13.76;100.00
80103;BME280;69865;47.648;19.030;2023-10-13T00:20:11;100719.41;;;13.78;100.00
80103;BME280;69865;47.648;19.030;2023-10-13T00:20:43;100718.44;;;13.79;100.00
80103;BME280;69865;47.648;19.030;2023-10-13T00:21:15;100717.59;;;13.78;100.00
80103;BME280;69865;47.648;19.030;2023-10-13T00:21:47;100720.56;;;13.75;100.00
80103;BME280;69865;47.648;19.030;2023-10-13T00:22:19;100715.25;;;13.75;100.00
80103;BME280;69865;47.648;19.030;2023-10-13T00:22:52;100712.19;;;13.70;100.00
80103;BME280;69865;47.648;19.030;2023-10-13T00:23:24;100710.69;;;13.68;100.00
80103;BME280;69865;47.648;19.030;2023-10-13T00:23:56;100710.81;;;13.66;100.00
80103;BME280;69865;47.648;19.030;2023-10-13T00:24:28;100711.81;;;13.65;100.00
80103;BME280;69865;47.648;19.030;2023-10-13T00:25:00;100718.06;;;13.64;100.00
80103;BME280;69865;47.648;19.030;2023-10-13T00:25:32;100714.72;;;13.62;100.00
80103;BME280;69865;47.648;19.030;2023-10-13T00:26:05;100717.53;;;13.60;100.00
80103;BME280;69865;47.648;19.030;2023-10-13T00:26:37;100715.97;;;13.58;100.00
80103;BME280;69865;47.648;19.030;2023-10-13T00:27:10;100713.06;;;13.61;100.00
80103;BME280;69865;47.648;19.030;2023-10-13T00:27:43;100720.47;;;13.57;100.00
80103;BME280;69865;47.648;19.030;2023-10-13T00:28:15;100715.31;;;13.56;100.00
80103;BME280;69865;47.648;19.030;2023-10-13T00:28:48;100717.97;;;13.56;100.00
80103;BME280;69865;47.648;19.030;2023-10-13T00:29:20;100710.16;;;13.54;100.00
80103;BME280;69865;47.648;19.030;2023-10-13T00:29:52;100713.63;;;13.55;100.00
80103;BME280;69865;47.648;19.030;2023-10-13T00:30:24;100710.84;;;13.56;100.00
80103;BME280;69865;47.648;19.030;2023-10-13T00:30:56;100712.53;;;13.57;100.00
80103;BME280;69865;47.648;19.030;2023-10-13T00:31:28;100709.88;;;13.57;100.00
80103;BME280;69865;47.648;19.030;2023-10-13T00:32:00;100709.03;;;13.57;100.00
80103;BME280;69865;47.648;19.030;2023-10-13T00:32:32;100710.03;;;13.56;100.00
80103;BME280;69865;47.648;19.030;2023-10-13T00:33:05;100701.78;;;13.59;100.00
80103;BME280;69865;47.648;19.030;2023-10-13T00:33:37;100705.13;;;13.61;100.00
80103;BME280;69865;47.648;19.030;2023-10-13T00:34:09;100712.63;;;13.65;100.00
80103;BME280;69865;47.648;19.030;2023-10-13T00:34:41;100701.91;;;13.67;100.00
80103;BME280;69865;47.648;19.030;2023-10-13T00:35:13;100704.25;;;13.70;100.00
80103;BME280;69865;47.648;19.030;2023-10-13T00:35:46;100705.94;;;13.71;100.00
80103;BME280;69865;47.648;19.030;2023-10-13T00:36:18;100700.09;;;13.68;100.00
80103;BME280;69865;47.648;19.030;2023-10-13T00:36:50;100699.38;;;13.65;100.00
80103;BME280;69865;47.648;19.030;2023-10-13T00:37:22;100699.56;;;13.64;100.00
80103;BME280;69865;47.648;19.030;2023-10-13T00:37:54;100703.16;;;13.63;100.00
80103;BME280;69865;47.648;19.030;2023-10-13T00:38:26;100699.84;;;13.61;100.00
80103;BME280;69865;47.648;19.030;2023-10-13T00:38:59;100697.88;;;13.63;100.00
80103;BME280;69865;47.648;19.030;2023-10-13T00:39:31;100698.84;;;13.62;100.00
80103;BME280;69865;47.648;19.030;2023-10-13T00:40:03;100705.13;;;13.61;100.00
80103;BME280;69865;47.648;19.030;2023-10-13T00:40:36;100710.56;;;13.59;100.00
80103;BME280;69865;47.648;19.030;2023-10-13T00:41:08;100710.56;;;13.59;100.00
80103;BME280;69865;47.648;19.030;2023-10-13T00:41:40;100710.56;;;13.59;100.00
80103;BME280;69865;47.648;19.030;2023-10-13T00:42:12;100700.66;;;13.61;100.00
80103;BME280;69865;47.648;19.030;2023-10-13T00:42:46;100702.50;;;13.61;100.00
80103;BME280;69865;47.648;19.030;2023-10-13T00:43:18;100694.81;;;13.58;100.00
80103;BME280;69865;47.648;19.030;2023-10-13T00:43:50;100704.00;;;13.63;100.00
80103;BME280;69865;47.648;19.030;2023-10-13T00:44:23;100698.59;;;13.65;100.00
80103;BME280;69865;47.648;19.030;2023-10-13T00:44:55;100703.72;;;13.67;100.00
80103;BME280;69865;47.648;19.030;2023-10-13T00:45:27;100700.09;;;13.68;100.00
80103;BME280;69865;47.648;19.030;2023-10-13T00:46:01;100708.72;;;13.70;100.00
80103;BME280;69865;47.648;19.030;2023-10-13T00:46:36;100705.09;;;13.71;100.00
80103;BME280;69865;47.648;19.030;2023-10-13T00:47:11;100700.63;;;13.71;100.00
80103;BME280;69865;47.648;19.030;2023-10-13T00:47:44;100703.28;;;13.71;100.00
80103;BME280;69865;47.648;19.030;2023-10-13T00:48:17;100701.47;;;13.72;100.00
80103;BME280;69865;47.648;19.030;2023-10-13T00:48:49;100700.50;;;13.73;100.00
80103;BME280;69865;47.648;19.030;2023-10-13T00:49:22;100703.16;;;13.73;100.00
80103;BME280;69865;47.648;19.030;2023-10-13T00:49:54;100701.19;;;13.75;100.00
80103;BME280;69865;47.648;19.030;2023-10-13T00:50:26;100707.31;;;13.75;100.00
80103;BME280;69865;47.648;19.030;2023-10-13T00:51:01;100706.47;;;13.75;100.00
80103;BME280;69865;47.648;19.030;2023-10-13T00:51:34;100707.59;;;13.72;100.00
80103;BME280;69865;47.648;19.030;2023-10-13T00:52:06;100705.63;;;13.74;100.00
80103;BME280;69865;47.648;19.030;2023-10-13T00:52:39;100706.34;;;13.76;100.00
80103;BME280;69865;47.648;19.030;2023-10-13T00:53:11;100706.34;;;13.76;100.00
80103;BME280;69865;47.648;19.030;2023-10-13T00:53:44;100706.03;;;13.79;100.00
80103;BME280;69865;47.648;19.030;2023-10-13T00:54:18;100701.88;;;13.77;100.00
80103;BME280;69865;47.648;19.030;2023-10-13T00:54:52;100707.19;;;13.77;100.00
80103;BME280;69865;47.648;19.030;2023-10-13T00:55:24;100702.03;;;13.75;100.00
80103;BME280;69865;47.648;19.030;2023-10-13T00:55:57;100705.50;;;13.76;100.00
80103;BME280;69865;47.648;19.030;2023-10-13T00:56:29;100706.03;;;13.79;100.00
80103;BME280;69865;47.648;19.030;2023-10-13T00:57:02;100704.38;;;13.78;100.00
80103;BME280;69865;47.648;19.030;2023-10-13T00:57:35;100704.91;;;13.82;100.00
80103;BME280;69865;47.648;19.030;2023-10-13T00:58:10;100705.50;;;13.85;100.00
80103;BME280;69865;47.648;19.030;2023-10-13T00:58:46;100706.03;;;13.89;100.00
80103;BME280;69865;47.648;19.030;2023-10-13T00:59:18;100705.88;;;13.90;100.00
80103;BME280;69865;47.648;19.030;2023-10-13T00:59:51;100700.56;;;13.90;100.00
80103;BME280;69865;47.648;19.030;2023-10-13T01:00:23;100703.09;;;13.92;100.00
80103;BME280;69865;47.648;19.030;2023-10-13T01:00:56;100703.91;;;13.92;100.00
80103;BME280;69865;47.648;19.030;2023-10-13T01:01:28;100706.56;;;13.92;100.00
80103;BME280;69865;47.648;19.030;2023-10-13T01:02:01;100698.47;;;13.94;100.00
80103;BME280;69865;47.648;19.030;2023-10-13T01:02:33;100698.63;;;13.92;100.00
80103;BME280;69865;47.648;19.030;2023-10-13T01:03:05;100698.75;;;13.91;100.00
80103;BME280;69865;47.648;19.030;2023-10-13T01:03:37;100699.06;;;13.88;100.00
80103;BME280;69865;47.648;19.030;2023-10-13T01:04:10;100697.81;;;13.82;100.00
80103;BME280;69865;47.648;19.030;2023-10-13T01:04:43;100701.88;;;13.77;100.00
80103;BME280;69865;47.648;19.030;2023-10-13T01:05:15;100698.53;;;13.75;100.00
80103;BME280;69865;47.648;19.030;2023-10-13T01:05:47;100706.19;;;13.78;100.00
80103;BME280;69865;47.648;19.030;2023-10-13T01:06:19;100697.44;;;13.77;100.00
80103;BME280;69865;47.648;19.030;2023-10-13T01:06:51;100698.00;;;13.71;100.00
80103;BME280;69865;47.648;19.030;2023-10-13T01:07:24;100697.59;;;13.66;100.00
80103;BME280;69865;47.648;19.030;2023-10-13T01:07:56;100701.22;;;13.65;100.00
80103;BME280;69865;47.648;19.030;2023-10-13T01:08:32;100694.09;;;13.65;100.00
80103;BME280;69865;47.648;19.030;2023-10-13T01:09:05;100688.81;;;13.65;100.00
80103;BME280;69865;47.648;19.030;2023-10-13T01:09:40;100691.84;;;13.71;100.00
80103;BME280;69865;47.648;19.030;2023-10-13T01:10:12;100689.22;;;13.71;100.00
80103;BME280;69865;47.648;19.030;2023-10-13T01:10:45;100692.03;;;13.69;100.00
80103;BME280;69865;47.648;19.030;2023-10-13T01:11:18;100690.66;;;13.65;100.00
80103;BME280;69865;47.648;19.030;2023-10-13T01:11:50;100698.41;;;13.67;100.00
80103;BME280;69865;47.648;19.030;2023-10-13T01:12:22;100694.09;;;13.65;100.00
80103;BME280;69865;47.648;19.030;2023-10-13T01:12:54;100693.97;;;13.67;100.00
80103;BME280;69865;47.648;19.030;2023-10-13T01:13:28;100697.31;;;13.69;100.00
80103;BME280;69865;47.648;19.030;2023-10-13T01:14:00;100701.34;;;13.73;100.00
80103;BME280;69865;47.648;19.030;2023-10-13T01:14:32;100693.09;;;13.76;100.00
80103;BME280;69865;47.648;19.030;2023-10-13T01:15:05;100692.81;;;13.79;100.00
80103;BME280;69865;47.648;19.030;2023-10-13T01:15:37;100695.47;;;13.79;100.00
80103;BME280;69865;47.648;19.030;2023-10-13T01:16:09;100701.88;;;13.77;100.00
80103;BME280;69865;47.648;19.030;2023-10-13T01:16:45;100693.66;;;13.70;100.00
80103;BME280;69865;47.648;19.030;2023-10-13T01:17:18;100699.25;;;13.67;100.00
80103;BME280;69865;47.648;19.030;2023-10-13T01:17:50;100688.81;;;13.65;100.00
80103;BME280;69865;47.648;19.030;2023-10-13T01:18:22;100700.09;;;13.68;100.00
80103;BME280;69865;47.648;19.030;2023-10-13T01:18:54;100693.00;;;13.68;100.00
80103;BME280;69865;47.648;19.030;2023-10-13T01:19:26;100699.25;;;13.67;100.00
80103;BME280;69865;47.648;19.030;2023-10-13T01:19:58;100694.94;;;13.66;100.00
80103;BME280;69865;47.648;19.030;2023-10-13T01:20:31;100696.75;;;13.65;100.00
80103;BME280;69865;47.648;19.030;2023-10-13T01:21:04;100698.72;;;13.63;100.00
80103;BME280;69865;47.648;19.030;2023-10-13T01:21:36;100705.13;;;13.61;100.00
80103;BME280;69865;47.648;19.030;2023-10-13T01:22:09;100699.00;;;13.60;100.00
80103;BME280;69865;47.648;19.030;2023-10-13T01:22:41;100700.94;;;13.58;100.00
80103;BME280;69865;47.648;19.030;2023-10-13T01:23:14;100709.19;;;13.55;100.00
80103;BME280;69865;47.648;19.030;2023-10-13T01:23:47;100699.31;;;13.57;100.00
80103;BME280;69865;47.648;19.030;2023-10-13T01:24:19;100693.44;;;13.54;100.00
80103;BME280;69865;47.648;19.030;2023-10-13T01:24:55;100696.91;;;13.54;100.00
80103;BME280;69865;47.648;19.030;2023-10-13T01:25:27;100703.88;;;13.55;100.00
80103;BME280;69865;47.648;19.030;2023-10-13T01:25:59;100704.72;;;13.56;100.00
80103;BME280;69865;47.648;19.030;2023-10-13T01:26:31;100708.50;;;13.53;100.00
80103;BME280;69865;47.648;19.030;2023-10-13T01:27:04;100706.28;;;13.49;100.00
80103;BME280;69865;47.648;19.030;2023-10-13T01:27:38;100710.31;;;13.43;100.00
80103;BME280;69865;47.648;19.030;2023-10-13T01:28:10;100711.03;;;13.45;100.00
80103;BME280;69865;47.648;19.030;2023-10-13T01:28:43;100710.03;;;13.46;100.00
80103;BME280;69865;47.648;19.030;2023-10-13T01:29:15;100710.72;;;13.48;100.00
80103;BME280;69865;47.648;19.030;2023-10-13T01:29:47;100703.91;;;13.46;100.00
80103;BME280;69865;47.648;19.030;2023-10-13T01:30:20;100706.81;;;13.43;100.00
80103;BME280;69865;47.648;19.030;2023-10-13T01:30:52;100712.13;;;13.43;100.00
80103;BME280;69865;47.648;19.030;2023-10-13T01:31:24;100707.53;;;13.45;100.00
80103;BME280;69865;47.648;19.030;2023-10-13T01:31:57;100701.25;;;13.46;100.00
80103;BME280;69865;47.648;19.030;2023-10-13T01:32:29;100699.19;;;13.40;100.00
80103;BME280;69865;47.648;19.030;2023-10-13T01:33:02;100705.72;;;13.45;100.00
80103;BME280;69865;47.648;19.030;2023-10-13T01:33:34;100703.22;;;13.44;100.00
80103;BME280;69865;47.648;19.030;2023-10-13T01:34:06;100701.53;;;13.43;100.00
80103;BME280;69865;47.648;19.030;2023-10-13T01:34:39;100700.56;;;13.44;100.00
80103;BME280;69865;47.648;19.030;2023-10-13T01:35:11;100710.44;;;13.42;100.00
80103;BME280;69865;47.648;19.030;2023-10-13T01:35:43;100708.94;;;13.39;100.00
80103;BME280;69865;47.648;19.030;2023-10-13T01:36:15;100700.56;;;13.34;100.00
80103;BME280;69865;47.648;19.030;2023-10-13T01:36:48;100708.50;;;13.34;100.00
80103;BME280;69865;47.648;19.030;2023-10-13T01:37:20;100710.31;;;13.34;100.00
80103;BME280;69865;47.648;19.030;2023-10-13T01:37:52;100705.03;;;13.34;100.00
80103;BME280;69865;47.648;19.030;2023-10-13T01:38:26;100705.03;;;13.34;100.00
80103;BME280;69865;47.648;19.030;2023-10-13T01:38:58;100706.03;;;13.33;100.00
80103;BME280;69865;47.648;19.030;2023-10-13T01:39:30;100713.25;;;13.31;100.00
80103;BME280;69865;47.648;19.030;2023-10-13T01:40:02;100715.63;;;13.24;100.00
80103;BME280;69865;47.648;19.030;2023-10-13T01:40:35;100715.22;;;13.19;100.00
80103;BME280;69865;47.648;19.030;2023-10-13T01:41:08;100717.56;;;13.22;100.00
80103;BME280;69865;47.648;19.030;2023-10-13T01:41:40;100719.53;;;13.20;100.00
80103;BME280;69865;47.648;19.030;2023-10-13T01:42:12;100718.56;;;13.21;100.00
80103;BME280;69865;47.648;19.030;2023-10-13T01:42:44;100712.03;;;13.15;100.00
80103;BME280;69865;47.648;19.030;2023-10-13T01:43:16;100718.81;;;13.18;100.00
80103;BME280;69865;47.648;19.030;2023-10-13T01:43:48;100714.25;;;13.20;100.00
80103;BME280;69865;47.648;19.030;2023-10-13T01:44:20;100716.06;;;13.20;100.00
80103;BME280;69865;47.648;19.030;2023-10-13T01:44:52;100718.81;;;13.18;100.00
80103;BME280;69865;47.648;19.030;2023-10-13T01:45:24;100719.53;;;13.20;100.00
80103;BME280;69865;47.648;19.030;2023-10-13T01:45:56;100721.91;;;13.23;100.00
80103;BME280;69865;47.648;19.030;2023-10-13T01:46:28;100723.03;;;13.21;100.00
80103;BME280;69865;47.648;19.030;2023-10-13T01:47:01;100728.88;;;13.24;100.00
80103;BME280;69865;47.648;19.030;2023-10-13T01:47:33;100727.06;;;13.25;100.00
80103;BME280;69865;47.648;19.030;2023-10-13T01:48:06;100720.94;;;13.24;100.00
80103;BME280;69865;47.648;19.030;2023-10-13T01:48:38;100724.41;;;13.25;100.00
80103;BME280;69865;47.648;19.030;2023-10-13T01:49:10;100723.44;;;13.26;100.00
80103;BME280;69865;47.648;19.030;2023-10-13T01:49:42;100729.69;;;13.25;100.00
80103;BME280;69865;47.648;19.030;2023-10-13T01:50:15;100724.41;;;13.25;100.00
80103;BME280;69865;47.648;19.030;2023-10-13T01:50:47;100729.00;;;13.23;100.00
80103;BME280;69865;47.648;19.030;2023-10-13T01:51:19;100730.78;;;13.22;100.00
80103;BME280;69865;47.648;19.030;2023-10-13T01:51:51;100733.72;;;13.19;100.00
80103;BME280;69865;47.648;19.030;2023-10-13T01:52:23;100731.91;;;13.20;100.00
80103;BME280;69865;47.648;19.030;2023-10-13T01:52:55;100730.78;;;13.22;100.00
80103;BME280;69865;47.648;19.030;2023-10-13T01:53:29;100723.69;;;13.23;100.00
80103;BME280;69865;47.648;19.030;2023-10-13T01:54:01;100732.34;;;13.25;100.00
80103;BME280;69865;47.648;19.030;2023-10-13T01:54:33;100730.53;;;13.25;100.00
80103;BME280;69865;47.648;19.030;2023-10-13T01:55:06;100727.72;;;13.27;100.00
80103;BME280;69865;47.648;19.030;2023-10-13T01:55:39;100726.22;;;13.24;100.00
80103;BME280;69865;47.648;19.030;2023-10-13T01:56:11;100732.34;;;13.25;100.00
80103;BME280;69865;47.648;19.030;2023-10-13T01:56:43;100724.97;;;13.28;100.00
80103;BME280;69865;47.648;19.030;2023-10-13T01:57:15;100728.03;;;13.33;100.00
80103;BME280;69865;47.648;19.030;2023-10-13T01:57:47;100728.84;;;13.34;100.00
80103;BME280;69865;47.648;19.030;2023-10-13T01:58:19;100730.22;;;13.38;100.00
80103;BME280;69865;47.648;19.030;2023-10-13T01:58:52;100725.94;;;13.37;100.00
80103;BME280;69865;47.648;19.030;2023-10-13T01:59:24;100725.09;;;13.36;100.00
80103;BME280;69865;47.648;19.030;2023-10-13T01:59:56;100723.53;;;13.34;100.00
80103;BME280;69865;47.648;19.030;2023-10-13T02:00:28;100722.44;;;13.36;100.00
80103;BME280;69865;47.648;19.030;2023-10-13T02:01:00;100721.47;;;13.37;100.00
80103;BME280;69865;47.648;19.030;2023-10-13T02:01:33;100730.09;;;13.39;100.00
80103;BME280;69865;47.648;19.030;2023-10-13T02:02:07;100726.31;;;13.42;100.00
80103;BME280;69865;47.648;19.030;2023-10-13T02:02:39;100734.13;;;13.43;100.00
80103;BME280;69865;47.648;19.030;2023-10-13T02:03:12;100728.53;;;13.46;100.00
80103;BME280;69865;47.648;19.030;2023-10-13T02:03:44;100722.28;;;13.47;100.00
80103;BME280;69865;47.648;19.030;2023-10-13T02:04:16;100717.53;;;13.51;100.00
80103;BME280;69865;47.648;19.030;2023-10-13T02:04:48;100719.09;;;13.53;100.00
80103;BME280;69865;47.648;19.030;2023-10-13T02:05:20;100720.59;;;13.56;100.00
80103;BME280;69865;47.648;19.030;2023-10-13T02:05:52;100724.94;;;13.57;100.00
80103;BME280;69865;47.648;19.030;2023-10-13T02:06:24;100717.25;;;13.54;100.00
80103;BME280;69865;47.648;19.030;2023-10-13T02:06:56;100722.41;;;13.55;100.00
80103;BME280;69865;47.648;19.030;2023-10-13T02:07:28;100734.50;;;13.58;100.00
80103;BME280;69865;47.648;19.030;2023-10-13T02:08:00;100726.88;;;13.55;100.00
80103;BME280;69865;47.648;19.030;2023-10-13T02:08:34;100723.13;;;13.57;100.00
80103;BME280;69865;47.648;19.030;2023-10-13T02:09:07;100728.13;;;13.60;100.00
80103;BME280;69865;47.648;19.030;2023-10-13T02:09:39;100718.38;;;13.61;100.00
80103;BME280;69865;47.648;19.030;2023-10-13T02:10:12;100729.75;;;13.61;100.00
80103;BME280;69865;47.648;19.030;2023-10-13T02:10:45;100720.31;;;13.59;100.00
80103;BME280;69865;47.648;19.030;2023-10-13T02:11:17;100717.53;;;13.60;100.00
80103;BME280;69865;47.648;19.030;2023-10-13T02:11:49;100718.75;;;13.66;100.00
80103;BME280;69865;47.648;19.030;2023-10-13T02:12:22;100718.19;;;13.72;100.00
80103;BME280;69865;47.648;19.030;2023-10-13T02:12:54;100722.53;;;13.73;100.00
80103;BME280;69865;47.648;19.030;2023-10-13T02:13:26;100722.66;;;13.72;100.00
80103;BME280;69865;47.648;19.030;2023-10-13T02:13:58;100730.72;;;13.70;100.00
80103;BME280;69865;47.648;19.030;2023-10-13T02:14:30;100724.59;;;13.70;100.00
80103;BME280;69865;47.648;19.030;2023-10-13T02:15:03;100715.84;;;13.69;100.00
80103;BME280;69865;47.648;19.030;2023-10-13T02:15:35;100715.69;;;13.71;100.00
80103;BME280;69865;47.648;19.030;2023-10-13T02:16:07;100725.16;;;13.73;100.00
80103;BME280;69865;47.648;19.030;2023-10-13T02:16:39;100716.22;;;13.74;100.00
80103;BME280;69865;47.648;19.030;2023-10-13T02:17:12;100721.69;;;13.73;100.00
80103;BME280;69865;47.648;19.030;2023-10-13T02:17:44;100718.88;;;13.74;100.00
80103;BME280;69865;47.648;19.030;2023-10-13T02:18:18;100725.00;;;13.75;100.00
80103;BME280;69865;47.648;19.030;2023-10-13T02:18:50;100718.75;;;13.76;100.00
80103;BME280;69865;47.648;19.030;2023-10-13T02:19:22;100716.78;;;13.78;100.00
80103;BME280;69865;47.648;19.030;2023-10-13T02:19:55;100714.00;;;13.79;100.00
80103;BME280;69865;47.648;19.030;2023-10-13T02:20:27;100719.16;;;13.81;100.00
80103;BME280;69865;47.648;19.030;2023-10-13T02:21:03;100716.78;;;13.78;100.00
80103;BME280;69865;47.648;19.030;2023-10-13T02:21:35;100719.28;;;13.79;100.00
80103;BME280;69865;47.648;19.030;2023-10-13T02:22:08;100720.97;;;13.80;100.00
80103;BME280;69865;47.648;19.030;2023-10-13T02:22:40;100718.16;;;13.82;100.00
80103;BME280;69865;47.648;19.030;2023-10-13T02:23:12;100721.63;;;13.82;100.00
80103;BME280;69865;47.648;19.030;2023-10-13T02:23:46;100720.13;;;13.80;100.00
80103;BME280;69865;47.648;19.030;2023-10-13T02:24:18;100720.13;;;13.80;100.00
80103;BME280;69865;47.648;19.030;2023-10-13T02:24:50;100725.97;;;13.83;100.00
80103;BME280;69865;47.648;19.030;2023-10-13T02:25:22;100725.66;;;13.86;100.00
80103;BME280;69865;47.648;19.030;2023-10-13T02:25:54;100729.16;;;13.87;100.00
80103;BME280;69865;47.648;19.030;2023-10-13T02:26:28;100724.41;;;13.90;100.00
80103;BME280;69865;47.648;19.030;2023-10-13T02:27:01;100724.25;;;13.92;100.00
80103;BME280;69865;47.648;19.030;2023-10-13T02:27:33;100726.06;;;13.91;100.00
80103;BME280;69865;47.648;19.030;2023-10-13T02:28:05;100727.03;;;13.90;100.00
80103;BME280;69865;47.648;19.030;2023-10-13T02:28:37;100728.72;;;13.91;100.00
80103;BME280;69865;47.648;19.030;2023-10-13T02:29:10;100722.59;;;13.91;100.00
80103;BME280;69865;47.648;19.030;2023-10-13T02:29:42;100721.44;;;13.93;100.00
80103;BME280;69865;47.648;19.030;2023-10-13T02:30:14;100719.81;;;13.92;100.00
80103;BME280;69865;47.648;19.030;2023-10-13T02:30:47;100722.03;;;13.97;100.00
80103;BME280;69865;47.648;19.030;2023-10-13T02:31:19;100725.47;;;13.97;100.00
80103;BME280;69865;47.648;19.030;2023-10-13T02:31:52;100722.16;;;13.95;100.00
80103;BME280;69865;47.648;19.030;2023-10-13T02:32:24;100725.09;;;13.92;100.00
80103;BME280;69865;47.648;19.030;2023-10-13T02:32:56;100722.47;;;13.92;100.00
80103;BME280;69865;47.648;19.030;2023-10-13T02:33:28;100725.09;;;13.92;100.00
80103;BME280;69865;47.648;19.030;2023-10-13T02:34:00;100727.44;;;13.95;100.00
80103;BME280;69865;47.648;19.030;2023-10-13T02:34:33;100730.78;;;13.97;100.00
80103;BME280;69865;47.648;19.030;2023-10-13T02:35:05;100725.47;;;13.97;100.00
80103;BME280;69865;47.648;19.030;2023-10-13T02:35:38;100733.16;;;14.00;100.00
80103;BME280;69865;47.648;19.030;2023-10-13T02:36:10;100738.47;;;14.00;100.00
80103;BME280;69865;47.648;19.030;2023-10-13T02:36:42;100738.47;;;14.00;100.00
80103;BME280;69865;47.648;19.030;2023-10-13T02:37:14;100736.66;;;14.01;100.00
80103;BME280;69865;47.648;19.030;2023-10-13T02:37:46;100740.94;;;14.02;100.00
80103;BME280;69865;47.648;19.030;2023-10-13T02:38:20;100741.47;;;14.05;100.00
80103;BME280;69865;47.648;19.030;2023-10-13T02:38:53;100738.56;;;14.08;100.00
80103;BME280;69865;47.648;19.030;2023-10-13T02:39:25;100736.88;;;14.07;100.00
80103;BME280;69865;47.648;19.030;2023-10-13T02:39:58;100743.16;;;14.06;100.00
80103;BME280;69865;47.648;19.030;2023-10-13T02:40:35;100738.84;;;14.05;100.00
80103;BME280;69865;47.648;19.030;2023-10-13T02:41:10;100741.94;;;14.01;100.00
80103;BME280;69865;47.648;19.030;2023-10-13T02:41:42;100744.59;;;14.01;100.00
80103;BME280;69865;47.648;19.030;2023-10-13T02:42:15;100741.94;;;14.01;100.00
80103;BME280;69865;47.648;19.030;2023-10-13T02:42:47;100748.88;;;14.02;100.00
80103;BME280;69865;47.648;19.030;2023-10-13T02:43:19;100752.66;;;14.09;100.00
80103;BME280;69865;47.648;19.030;2023-10-13T02:43:51;100753.31;;;14.11;100.00
80103;BME280;69865;47.648;19.030;2023-10-13T02:44:24;100757.47;;;14.13;100.00
80103;BME280;69865;47.648;19.030;2023-10-13T02:44:56;100759.03;;;14.16;100.00
80103;BME280;69865;47.648;19.030;2023-10-13T02:45:28;100756.22;;;14.18;100.00